Terminal Aerodrome Forecast
Issued by NWS Sioux Falls, SD

Home | Current Version | Previous Version | Text Only | Print | Product List | Glossary On
Versions: 1 2 3 4 5 6 7 8 9 10 11 12 13 14 15 16 17 18 19 20 21 22 23 24 25 26 27
000
FTUS43 KFSD 282320
TAFFSD
TAF
KFSD 282320Z 2900/2924 05011KT P6SM OVC008
     FM290600 04012KT 3SM -SN SCT008 OVC035
     FM291200 01013G19KT P6SM SCT008 BKN035=

USA.gov is the U.S. government's official web portal to all federal, state and local government web resources and services.